Time;durP1;ratioP1;P1;durP2;ratioP2;P2;SDS_P1;SDS_P2;PMS_P1;PMS_P2;Temp;Humidity;BMP_temperature;BMP_pressure;BME280_temperature;BME280_humidity;BME280_pressure;Samples;Min_cycle;Max_cycle;Signal;HPM_P1;HPM_P2
2023/01/06 00:01:02;;;;;;;72.40;11.50;;;;;;;;;;5074669;28;20447;-70
2023/01/06 00:03:29;;;;;;;74.40;12.40;;;;;;;;;;5074603;28;20479;-70
2023/01/06 00:05:57;;;;;;;74.87;11.30;;;;;;;;;;5074471;28;20526;-70
2023/01/06 00:08:25;;;;;;;69.50;11.13;;;;;;;;;;5074683;28;20447;-70
2023/01/06 00:10:53;;;;;;;66.60;11.00;;;;;;;;;;5073706;28;20457;-70
2023/01/06 00:13:20;;;;;;;72.20;12.60;;;;;;;;;;5074475;28;20446;-70
2023/01/06 00:15:47;;;;;;;74.90;13.13;;;;;;;;;;5074457;28;20455;-70
2023/01/06 00:18:14;;;;;;;70.87;12.67;;;;;;;;;;5074171;28;20454;-70
2023/01/06 00:20:41;;;;;;;68.23;12.63;;;;;;;;;;5073566;28;20454;-70
2023/01/06 00:23:09;;;;;;;72.50;12.50;;;;;;;;;;5074229;28;20498;-70
2023/01/06 00:25:36;;;;;;;69.27;11.10;;;;;;;;;;5074155;28;20998;-70
2023/01/06 00:28:04;;;;;;;66.67;10.70;;;;;;;;;;5074264;28;20450;-70
2023/01/06 00:30:31;;;;;;;68.90;11.47;;;;;;;;;;5073319;28;20451;-70
2023/01/06 00:32:58;;;;;;;72.17;11.30;;;;;;;;;;5073948;28;20467;-70
2023/01/06 00:35:25;;;;;;;72.50;11.03;;;;;;;;;;5074289;28;20448;-70
2023/01/06 00:37:53;;;;;;;71.07;12.70;;;;;;;;;;5073917;28;20447;-70
2023/01/06 00:40:20;;;;;;;70.90;11.73;;;;;;;;;;5073469;28;20448;-70
2023/01/06 00:42:47;;;;;;;67.90;10.23;;;;;;;;;;5073847;28;20691;-70
2023/01/06 00:45:15;;;;;;;69.07;10.60;;;;;;;;;;5073946;28;20932;-70
2023/01/06 00:47:42;;;;;;;69.23;9.90;;;;;;;;;;5073729;28;20449;-70
2023/01/06 00:50:10;;;;;;;67.47;10.70;;;;;;;;;;5073173;28;20818;-70
2023/01/06 00:52:37;;;;;;;70.10;10.97;;;;;;;;;;5073119;28;20471;-70
2023/01/06 00:55:04;;;;;;;71.03;11.47;;;;;;;;;;5073588;28;20948;-70
2023/01/06 00:57:31;;;;;;;72.20;11.17;;;;;;;;;;5073686;28;20843;-70
2023/01/06 00:59:58;;;;;;;69.63;10.97;;;;;;;;;;5072706;28;20447;-70
2023/01/06 01:02:27;;;;;;;67.30;11.20;;;;;;;;;;5073652;28;20469;-70
2023/01/06 01:04:54;;;;;;;68.67;10.43;;;;;;;;;;5073517;28;20489;-70
2023/01/06 01:07:21;;;;;;;71.77;11.70;;;;;;;;;;5073299;28;20457;-70
2023/01/06 01:09:48;;;;;;;70.67;10.73;;;;;;;;;;5072676;28;20449;-70
2023/01/06 01:12:15;;;;;;;69.50;12.63;;;;;;;;;;5073229;28;20470;-70
2023/01/06 01:14:45;;;;;;;71.07;10.80;;;;;;;;;;5073153;28;20490;-70
2023/01/06 01:17:13;;;;;;;71.60;11.87;;;;;;;;;;5073134;28;20451;-70
2023/01/06 01:19:41;;;;;;;66.60;10.70;;;;;;;;;;5072447;28;20450;-70
2023/01/06 01:22:09;;;;;;;66.97;10.20;;;;;;;;;;5073002;28;20471;-70
2023/01/06 01:24:36;;;;;;;72.27;11.30;;;;;;;;;;5072887;28;20483;-70
2023/01/06 01:27:03;;;;;;;67.67;11.00;;;;;;;;;;5072897;28;20443;-70
2023/01/06 01:29:30;;;;;;;66.97;10.60;;;;;;;;;;5072077;28;20447;-70
2023/01/06 01:31:57;;;;;;;73.27;11.77;;;;;;;;;;5073030;28;20475;-70
2023/01/06 01:34:25;;;;;;;66.57;10.90;;;;;;;;;;5072951;28;20439;-70
2023/01/06 01:36:55;;;;;;;66.67;11.30;;;;;;;;;;5072838;28;20455;-70
2023/01/06 01:39:23;;;;;;;69.63;12.47;;;;;;;;;;5071924;28;20462;-70
2023/01/06 01:41:51;;;;;;;74.57;14.13;;;;;;;;;;5072496;28;20467;-70
2023/01/06 01:44:36;;;;;;;87.17;20.20;;;;;;;;;;5072728;28;20486;-70
2023/01/06 01:47:04;;;;;;;92.67;23.73;;;;;;;;;;5072543;28;20457;-70
2023/01/06 01:49:34;;;;;;;95.37;24.50;;;;;;;;;;5071797;28;20474;-70
2023/01/06 01:52:02;;;;;;;93.63;25.63;;;;;;;;;;5072299;28;20482;-70
2023/01/06 01:54:32;;;;;;;99.03;27.27;;;;;;;;;;5072620;28;20443;-70
2023/01/06 01:57:00;;;;;;;91.00;21.77;;;;;;;;;;5072600;28;20759;-70
2023/01/06 01:59:29;;;;;;;84.70;18.47;;;;;;;;;;5071609;28;20459;-70
2023/01/06 02:01:56;;;;;;;79.10;18.37;;;;;;;;;;5072306;28;20472;-70
2023/01/06 02:04:25;;;;;;;74.03;15.23;;;;;;;;;;5071313;28;20479;-70
2023/01/06 02:06:52;;;;;;;71.97;13.37;;;;;;;;;;5072076;28;20451;-70
2023/01/06 02:09:24;;;;;;;75.27;15.47;;;;;;;;;;5071552;28;20454;-70
2023/01/06 02:11:51;;;;;;;72.90;12.20;;;;;;;;;;5072210;28;20481;-70
2023/01/06 02:14:20;;;;;;;65.80;10.33;;;;;;;;;;5072030;28;20449;-70
2023/01/06 02:16:58;;;;;;;76.53;14.63;;;;;;;;;;5072047;28;20979;-70
2023/01/06 02:19:53;;;;;;;70.60;11.77;;;;;;;;;;5071553;28;20799;-70
2023/01/06 02:22:31;;;;;;;69.97;11.90;;;;;;;;;;5072086;28;20471;-70
2023/01/06 02:28:19;;;;;;;66.40;10.27;;;;;;;;;;5068574;28;20458;-70
2023/01/06 02:30:56;;;;;;;67.03;10.67;;;;;;;;;;5071004;28;20455;-70
2023/01/06 02:33:26;;;;;;;67.57;10.60;;;;;;;;;;5072023;28;20439;-70
2023/01/06 02:36:03;;;;;;;69.57;10.93;;;;;;;;;;5071813;28;20447;-70
2023/01/06 02:38:41;;;;;;;65.37;9.80;;;;;;;;;;5071640;28;20453;-70
2023/01/06 02:41:12;;;;;;;68.40;10.37;;;;;;;;;;5071903;28;20450;-70
2023/01/06 02:43:45;;;;;;;74.23;10.10;;;;;;;;;;5071790;28;20487;-70
2023/01/06 02:46:18;;;;;;;67.77;9.47;;;;;;;;;;5071817;28;20455;-70
2023/01/06 02:48:51;;;;;;;66.93;9.80;;;;;;;;;;5070777;28;20453;-70
2023/01/06 02:51:19;;;;;;;69.57;10.00;;;;;;;;;;5071449;28;20832;-70
2023/01/06 02:53:51;;;;;;;67.10;8.93;;;;;;;;;;5071742;28;20443;-70
2023/01/06 02:56:19;;;;;;;66.30;9.03;;;;;;;;;;5071730;28;20833;-70
2023/01/06 02:58:49;;;;;;;67.43;9.63;;;;;;;;;;5070867;28;20457;-70
2023/01/06 03:01:17;;;;;;;70.13;9.67;;;;;;;;;;5071518;28;20472;-70
2023/01/06 03:03:47;;;;;;;67.80;9.63;;;;;;;;;;5071802;28;20493;-70
2023/01/06 03:06:16;;;;;;;66.10;9.40;;;;;;;;;;5071603;28;20451;-70
2023/01/06 03:08:44;;;;;;;64.90;10.40;;;;;;;;;;5070814;28;20494;-70
2023/01/06 03:11:11;;;;;;;66.37;10.07;;;;;;;;;;5071446;28;20475;-70
2023/01/06 03:13:40;;;;;;;69.83;10.10;;;;;;;;;;5071289;28;20443;-70
2023/01/06 03:16:08;;;;;;;66.10;10.13;;;;;;;;;;5072708;28;20487;-70
2023/01/06 03:18:36;;;;;;;67.10;8.90;;;;;;;;;;5074839;28;20453;-70
2023/01/06 03:21:06;;;;;;;72.80;10.67;;;;;;;;;;5075380;28;20449;-70
2023/01/06 03:23:34;;;;;;;64.87;8.23;;;;;;;;;;5075287;28;20443;-70
2023/01/06 03:26:01;;;;;;;62.87;8.07;;;;;;;;;;5075258;28;20474;-70
2023/01/06 03:28:28;;;;;;;66.17;8.70;;;;;;;;;;5075107;28;20454;-70
2023/01/06 03:31:04;;;;;;;71.00;9.73;;;;;;;;;;5074804;28;20447;-70
2023/01/06 03:33:34;;;;;;;65.57;8.33;;;;;;;;;;5075204;28;21165;-70
2023/01/06 03:36:06;;;;;;;66.50;8.73;;;;;;;;;;5075463;28;20792;-70
2023/01/06 03:38:40;;;;;;;69.77;9.10;;;;;;;;;;5074443;28;20451;-70
2023/01/06 03:41:11;;;;;;;63.93;8.30;;;;;;;;;;5075150;28;20452;-70
2023/01/06 03:43:41;;;;;;;63.23;8.80;;;;;;;;;;5075025;28;20530;-70
2023/01/06 03:46:21;;;;;;;63.63;7.90;;;;;;;;;;5074811;28;20952;-70
2023/01/06 03:48:54;;;;;;;64.30;8.20;;;;;;;;;;5074165;28;20821;-70
2023/01/06 03:51:36;;;;;;;66.40;7.67;;;;;;;;;;5074957;28;20482;-70
2023/01/06 03:54:07;;;;;;;64.50;8.87;;;;;;;;;;5074771;28;20936;-70
2023/01/06 03:56:36;;;;;;;64.10;8.43;;;;;;;;;;5074813;28;20440;-70
2023/01/06 03:59:06;;;;;;;64.83;8.57;;;;;;;;;;5073950;28;20445;-70
2023/01/06 04:01:33;;;;;;;65.17;8.63;;;;;;;;;;5074520;28;20465;-70
2023/01/06 04:04:02;;;;;;;65.60;8.87;;;;;;;;;;5074553;28;20485;-70
2023/01/06 04:06:29;;;;;;;65.73;8.50;;;;;;;;;;5074606;28;20447;-70
2023/01/06 04:08:56;;;;;;;66.90;9.00;;;;;;;;;;5073686;28;20458;-70
2023/01/06 04:14:09;;;;;;;65.03;7.50;;;;;;;;;;5074399;28;20652;-70
2023/01/06 04:16:36;;;;;;;68.97;9.67;;;;;;;;;;5074645;28;20443;-70
2023/01/06 04:19:03;;;;;;;68.33;9.13;;;;;;;;;;5073448;28;20458;-70
2023/01/06 04:21:30;;;;;;;64.53;8.40;;;;;;;;;;5074605;28;20505;-70
2023/01/06 04:23:57;;;;;;;65.57;8.10;;;;;;;;;;5074241;28;20487;-70
2023/01/06 04:26:26;;;;;;;62.93;7.50;;;;;;;;;;5074287;28;20455;-70
2023/01/06 04:28:53;;;;;;;66.47;8.30;;;;;;;;;;5072405;28;20624;-70
2023/01/06 04:31:20;;;;;;;62.70;7.40;;;;;;;;;;5074165;28;20479;-70
2023/01/06 04:33:47;;;;;;;64.30;8.60;;;;;;;;;;5074162;28;20954;-70
2023/01/06 04:36:14;;;;;;;65.23;8.47;;;;;;;;;;5073934;28;20463;-70
2023/01/06 04:38:41;;;;;;;65.50;8.60;;;;;;;;;;5073149;28;20447;-70
2023/01/06 04:41:09;;;;;;;64.10;7.93;;;;;;;;;;5074219;28;20605;-70
2023/01/06 04:43:37;;;;;;;64.40;8.30;;;;;;;;;;5073800;28;20960;-70
2023/01/06 04:46:04;;;;;;;64.10;8.70;;;;;;;;;;5073817;28;20494;-70
2023/01/06 04:48:31;;;;;;;63.10;7.97;;;;;;;;;;5073256;28;20565;-70
2023/01/06 04:51:02;;;;;;;67.20;8.23;;;;;;;;;;5073649;28;20452;-70
2023/01/06 04:53:29;;;;;;;64.97;8.90;;;;;;;;;;5073594;28;20454;-70
2023/01/06 04:55:56;;;;;;;64.10;10.13;;;;;;;;;;5073531;28;20454;-70
2023/01/06 04:58:23;;;;;;;63.77;8.20;;;;;;;;;;5073425;28;20448;-70
2023/01/06 05:00:51;;;;;;;66.40;8.73;;;;;;;;;;5072824;28;20555;-70
2023/01/06 05:03:18;;;;;;;65.13;8.93;;;;;;;;;;5073489;28;20811;-70
2023/01/06 05:05:46;;;;;;;63.50;7.60;;;;;;;;;;5073312;28;20487;-70
2023/01/06 05:08:13;;;;;;;66.03;7.50;;;;;;;;;;5073143;28;20447;-70
2023/01/06 05:10:40;;;;;;;64.70;8.37;;;;;;;;;;5072594;28;20458;-70
2023/01/06 05:13:07;;;;;;;66.40;8.17;;;;;;;;;;5073384;28;20509;-70
2023/01/06 05:15:34;;;;;;;63.00;7.97;;;;;;;;;;5073173;28;20452;-70
2023/01/06 05:18:02;;;;;;;63.07;8.03;;;;;;;;;;5073221;28;20447;-70
2023/01/06 05:20:29;;;;;;;67.87;8.80;;;;;;;;;;5072470;28;20443;-70
2023/01/06 05:22:56;;;;;;;69.00;8.70;;;;;;;;;;5072839;28;20479;-70
2023/01/06 05:25:24;;;;;;;64.23;8.87;;;;;;;;;;5072945;28;20856;-70
2023/01/06 05:27:51;;;;;;;64.70;8.83;;;;;;;;;;5073116;28;20490;-70
2023/01/06 05:30:18;;;;;;;64.17;7.60;;;;;;;;;;5072302;28;20814;-70
2023/01/06 05:32:45;;;;;;;64.13;8.20;;;;;;;;;;5072844;28;20571;-70
2023/01/06 05:35:13;;;;;;;65.60;9.00;;;;;;;;;;5072706;28;20444;-70
2023/01/06 05:37:40;;;;;;;65.00;8.30;;;;;;;;;;5072972;28;20452;-70
2023/01/06 05:40:08;;;;;;;64.90;8.23;;;;;;;;;;5071951;28;20454;-70
2023/01/06 05:42:35;;;;;;;64.60;7.93;;;;;;;;;;5072520;28;20467;-70
2023/01/06 05:45:02;;;;;;;63.80;7.80;;;;;;;;;;5072567;28;20487;-70
2023/01/06 05:47:29;;;;;;;65.60;7.90;;;;;;;;;;5072531;28;20461;-70
2023/01/06 05:49:56;;;;;;;63.30;7.63;;;;;;;;;;5071649;28;20962;-70
2023/01/06 05:52:25;;;;;;;64.40;8.30;;;;;;;;;;5072648;28;20572;-70
2023/01/06 05:54:52;;;;;;;64.17;8.43;;;;;;;;;;5072589;28;20793;-70
2023/01/06 05:57:19;;;;;;;64.00;7.70;;;;;;;;;;5072124;28;20449;-70
2023/01/06 05:59:46;;;;;;;64.70;8.37;;;;;;;;;;5071556;28;20962;-70
2023/01/06 06:02:13;;;;;;;65.27;9.00;;;;;;;;;;5072150;28;20463;-70
2023/01/06 06:04:40;;;;;;;65.93;8.10;;;;;;;;;;5072393;28;20850;-70
2023/01/06 06:07:07;;;;;;;66.77;9.13;;;;;;;;;;5072538;28;20455;-70
2023/01/06 06:09:36;;;;;;;65.30;7.73;;;;;;;;;;5071601;28;20440;-70
2023/01/06 06:12:03;;;;;;;66.40;8.67;;;;;;;;;;5072536;28;20485;-70
2023/01/06 06:14:30;;;;;;;66.03;8.40;;;;;;;;;;5072164;28;20449;-70
2023/01/06 06:16:57;;;;;;;64.67;8.50;;;;;;;;;;5071933;28;20448;-70
2023/01/06 06:19:24;;;;;;;62.30;7.97;;;;;;;;;;5071435;28;20962;-70
2023/01/06 06:21:52;;;;;;;65.50;9.10;;;;;;;;;;5072097;28;20467;-70
2023/01/06 06:24:20;;;;;;;65.27;9.37;;;;;;;;;;5072063;28;20459;-70
2023/01/06 06:26:48;;;;;;;69.03;8.90;;;;;;;;;;5071855;28;20468;-70
2023/01/06 06:29:15;;;;;;;69.17;7.73;;;;;;;;;;5071244;28;20465;-70
2023/01/06 06:31:43;;;;;;;63.10;8.23;;;;;;;;;;5071502;28;20467;-70
2023/01/06 06:34:11;;;;;;;67.17;7.97;;;;;;;;;;5072126;28;20479;-70
2023/01/06 06:36:38;;;;;;;67.30;8.40;;;;;;;;;;5071988;28;20896;-70
2023/01/06 06:39:05;;;;;;;66.07;9.80;;;;;;;;;;5071140;28;20453;-70
2023/01/06 06:41:32;;;;;;;66.47;9.80;;;;;;;;;;5071656;28;20996;-70
2023/01/06 06:44:02;;;;;;;68.63;9.77;;;;;;;;;;5071684;28;20445;-70
2023/01/06 06:46:30;;;;;;;67.67;9.13;;;;;;;;;;5071822;28;20487;-70
2023/01/06 06:48:57;;;;;;;67.40;9.23;;;;;;;;;;5071088;28;20804;-70
2023/01/06 06:51:24;;;;;;;62.97;9.00;;;;;;;;;;5071174;28;20467;-70
2023/01/06 06:53:51;;;;;;;67.37;10.83;;;;;;;;;;5071748;28;20444;-70
2023/01/06 06:56:20;;;;;;;65.63;9.20;;;;;;;;;;5071633;28;20439;-70
2023/01/06 06:58:47;;;;;;;67.70;9.33;;;;;;;;;;5070797;28;20440;-70
2023/01/06 07:01:16;;;;;;;66.13;9.13;;;;;;;;;;5071490;28;20477;-70
2023/01/06 07:03:43;;;;;;;63.77;8.97;;;;;;;;;;5071495;28;20451;-70
2023/01/06 07:06:12;;;;;;;66.20;8.77;;;;;;;;;;5071628;28;20493;-70
2023/01/06 07:08:39;;;;;;;64.97;8.83;;;;;;;;;;5070870;28;20448;-70
2023/01/06 07:11:06;;;;;;;65.20;8.87;;;;;;;;;;5071378;28;20447;-70
2023/01/06 07:13:33;;;;;;;67.13;9.70;;;;;;;;;;5071750;28;20805;-70
2023/01/06 07:16:00;;;;;;;62.57;7.50;;;;;;;;;;5071646;28;20824;-70
2023/01/06 07:18:28;;;;;;;68.20;7.33;;;;;;;;;;5071411;28;20477;-70
2023/01/06 07:20:55;;;;;;;63.70;7.33;;;;;;;;;;5070914;28;20451;-70
2023/01/06 07:23:23;;;;;;;65.37;8.83;;;;;;;;;;5071412;28;20443;-70
2023/01/06 07:25:52;;;;;;;65.77;7.80;;;;;;;;;;5071065;28;20491;-70
2023/01/06 07:28:19;;;;;;;62.30;7.87;;;;;;;;;;5071386;28;20462;-70
2023/01/06 07:30:46;;;;;;;63.43;6.80;;;;;;;;;;5070798;28;20469;-70
2023/01/06 07:33:13;;;;;;;61.87;7.13;;;;;;;;;;5071369;28;20842;-70
2023/01/06 07:35:42;;;;;;;63.30;7.63;;;;;;;;;;5071364;28;20444;-70
2023/01/06 07:38:09;;;;;;;65.10;7.30;;;;;;;;;;5071008;28;20962;-70
2023/01/06 07:40:36;;;;;;;63.00;7.40;;;;;;;;;;5070134;28;20451;-70
2023/01/06 07:43:05;;;;;;;61.30;7.37;;;;;;;;;;5070801;28;20555;-70
2023/01/06 07:45:32;;;;;;;63.30;6.60;;;;;;;;;;5071518;28;20483;-70
2023/01/06 07:47:59;;;;;;;63.03;6.70;;;;;;;;;;5071175;28;20447;-70
2023/01/06 07:50:26;;;;;;;62.67;6.90;;;;;;;;;;5070268;28;20443;-70
2023/01/06 07:52:57;;;;;;;61.90;6.93;;;;;;;;;;5070867;28;20474;-70
2023/01/06 07:55:24;;;;;;;60.60;6.77;;;;;;;;;;5071064;28;20448;-70
2023/01/06 07:57:52;;;;;;;65.47;7.50;;;;;;;;;;5071304;28;20451;-70
2023/01/06 08:00:19;;;;;;;61.07;6.63;;;;;;;;;;5070289;28;20961;-69
2023/01/06 08:02:46;;;;;;;62.77;6.77;;;;;;;;;;5071577;28;20471;-69
2023/01/06 08:05:13;;;;;;;60.70;6.03;;;;;;;;;;5074373;28;20478;-69
2023/01/06 08:07:40;;;;;;;60.90;6.00;;;;;;;;;;5074445;28;20454;-69
2023/01/06 08:10:09;;;;;;;61.40;5.10;;;;;;;;;;5073782;28;20451;-69
2023/01/06 08:12:36;;;;;;;58.67;4.60;;;;;;;;;;5074222;28;21025;-69
2023/01/06 08:15:04;;;;;;;59.30;4.80;;;;;;;;;;5074427;28;20442;-69
2023/01/06 08:17:31;;;;;;;59.30;4.80;;;;;;;;;;5074368;28;20521;-69
2023/01/06 08:19:58;;;;;;;61.60;4.50;;;;;;;;;;5073376;28;20449;-69
2023/01/06 08:22:25;;;;;;;58.53;3.87;;;;;;;;;;5074333;28;20835;-69
2023/01/06 08:24:52;;;;;;;61.03;3.63;;;;;;;;;;5074153;28;20459;-69
2023/01/06 08:27:21;;;;;;;58.50;3.60;;;;;;;;;;5074091;28;20451;-69
2023/01/06 08:29:48;;;;;;;58.10;3.57;;;;;;;;;;5073475;28;20482;-69
2023/01/06 08:32:16;;;;;;;58.40;3.60;;;;;;;;;;5073869;28;20467;-68
2023/01/06 08:34:43;;;;;;;58.00;3.37;;;;;;;;;;5074160;28;20448;-70
2023/01/06 08:37:10;;;;;;;58.20;3.30;;;;;;;;;;5073947;28;20444;-69
2023/01/06 08:39:37;;;;;;;58.77;3.30;;;;;;;;;;5073354;28;20447;-70
2023/01/06 08:42:04;;;;;;;58.20;3.27;;;;;;;;;;5073897;28;20816;-69
2023/01/06 08:44:33;;;;;;;57.67;3.47;;;;;;;;;;5073952;28;20458;-70
2023/01/06 08:47:00;;;;;;;58.00;3.53;;;;;;;;;;5073768;28;20487;-69
2023/01/06 08:49:27;;;;;;;57.87;3.07;;;;;;;;;;5073261;28;20450;-69
2023/01/06 08:51:54;;;;;;;57.87;3.30;;;;;;;;;;5073834;28;20834;-69
2023/01/06 08:54:21;;;;;;;59.37;3.13;;;;;;;;;;5073819;28;20444;-69
2023/01/06 08:56:48;;;;;;;57.50;2.70;;;;;;;;;;5073611;28;20450;-69
2023/01/06 08:59:17;;;;;;;60.20;2.87;;;;;;;;;;5072817;28;20899;-69
2023/01/06 09:01:45;;;;;;;57.27;3.13;;;;;;;;;;5073352;28;20478;-69
2023/01/06 09:04:13;;;;;;;57.47;2.33;;;;;;;;;;5073671;28;20475;-69
2023/01/06 09:06:42;;;;;;;58.53;2.63;;;;;;;;;;5073466;28;20479;-69
2023/01/06 09:09:10;;;;;;;57.63;3.10;;;;;;;;;;5073038;28;20447;-69
2023/01/06 09:11:38;;;;;;;57.07;2.97;;;;;;;;;;5073251;28;20505;-69
2023/01/06 09:14:05;;;;;;;56.97;2.60;;;;;;;;;;5072845;28;20453;-69
2023/01/06 09:16:32;;;;;;;58.87;3.07;;;;;;;;;;5073229;28;20454;-69
2023/01/06 09:19:00;;;;;;;58.00;2.43;;;;;;;;;;5072544;28;20479;-69
2023/01/06 09:21:27;;;;;;;58.70;2.87;;;;;;;;;;5072886;28;20473;-69
2023/01/06 09:23:54;;;;;;;58.27;3.17;;;;;;;;;;5073102;28;20447;-69
2023/01/06 09:26:22;;;;;;;58.13;2.87;;;;;;;;;;5072779;28;20487;-69
2023/01/06 09:28:49;;;;;;;58.43;2.80;;;;;;;;;;5072083;28;20826;-69
2023/01/06 09:31:17;;;;;;;57.90;2.60;;;;;;;;;;5073009;28;20467;-69
2023/01/06 09:33:44;;;;;;;57.60;3.00;;;;;;;;;;5072976;28;20450;-69
2023/01/06 09:36:12;;;;;;;58.30;2.60;;;;;;;;;;5073048;28;20447;-69
2023/01/06 09:38:39;;;;;;;57.97;3.00;;;;;;;;;;5072000;28;20999;-69
2023/01/06 09:41:16;;;;;;;57.60;2.80;;;;;;;;;;5072551;28;20448;-69
2023/01/06 09:43:47;;;;;;;57.47;2.93;;;;;;;;;;5073115;28;20451;-69
2023/01/06 09:46:16;;;;;;;57.40;2.73;;;;;;;;;;5072562;28;20479;-69
2023/01/06 09:48:46;;;;;;;57.40;2.90;;;;;;;;;;5071837;28;20451;-69
2023/01/06 09:51:16;;;;;;;57.60;2.87;;;;;;;;;;5072654;28;20475;-69
2023/01/06 09:53:45;;;;;;;57.97;2.97;;;;;;;;;;5072437;28;20447;-69
2023/01/06 09:56:14;;;;;;;58.27;2.60;;;;;;;;;;5072369;28;20455;-69
2023/01/06 09:58:44;;;;;;;58.87;3.43;;;;;;;;;;5071773;28;20458;-69
2023/01/06 10:01:14;;;;;;;62.43;7.03;;;;;;;;;;5072421;28;20475;-69
2023/01/06 10:03:48;;;;;;;58.20;3.33;;;;;;;;;;5072658;28;20447;-70
2023/01/06 10:06:24;;;;;;;60.27;4.87;;;;;;;;;;5072126;28;21006;-70
2023/01/06 10:08:55;;;;;;;67.07;10.53;;;;;;;;;;5071700;28;20455;-70
2023/01/06 10:11:25;;;;;;;58.50;3.43;;;;;;;;;;5072221;28;20470;-70
2023/01/06 10:13:58;;;;;;;57.87;2.90;;;;;;;;;;5072521;28;20453;-70
2023/01/06 10:16:33;;;;;;;58.70;3.27;;;;;;;;;;5072070;28;20447;-70
2023/01/06 10:19:04;;;;;;;58.40;3.20;;;;;;;;;;5071597;28;20819;-70
2023/01/06 10:21:35;;;;;;;58.03;3.00;;;;;;;;;;5071962;28;21018;-70
2023/01/06 10:24:07;;;;;;;58.30;3.67;;;;;;;;;;5072155;28;20451;-70
2023/01/06 10:26:41;;;;;;;60.20;3.03;;;;;;;;;;5071112;28;20487;-70
2023/01/06 10:29:12;;;;;;;58.20;3.10;;;;;;;;;;5071109;28;20936;-70
2023/01/06 10:31:41;;;;;;;58.00;2.90;;;;;;;;;;5071918;28;20478;-70
2023/01/06 10:34:14;;;;;;;58.30;2.83;;;;;;;;;;5072081;28;20444;-70
2023/01/06 10:36:43;;;;;;;58.17;3.07;;;;;;;;;;5071874;28;20457;-70
2023/01/06 10:39:14;;;;;;;57.53;2.70;;;;;;;;;;5071125;28;20455;-70
2023/01/06 10:41:44;;;;;;;58.37;3.10;;;;;;;;;;5071709;28;20992;-70
2023/01/06 10:44:12;;;;;;;58.30;2.60;;;;;;;;;;5072178;28;20829;-70
2023/01/06 10:46:39;;;;;;;58.00;2.73;;;;;;;;;;5071859;28;20479;-70
2023/01/06 10:49:10;;;;;;;57.63;2.60;;;;;;;;;;5071181;28;20861;-70
2023/01/06 10:51:39;;;;;;;58.33;2.50;;;;;;;;;;5071717;28;20482;-70
2023/01/06 10:54:09;;;;;;;57.80;2.50;;;;;;;;;;5071622;28;20447;-70
2023/01/06 10:56:37;;;;;;;57.50;2.80;;;;;;;;;;5071923;28;20443;-70
2023/01/06 10:59:07;;;;;;;58.33;2.30;;;;;;;;;;5071098;28;20912;-70
2023/01/06 11:01:36;;;;;;;57.57;2.70;;;;;;;;;;5071753;28;20809;-70
2023/01/06 11:04:10;;;;;;;58.70;2.80;;;;;;;;;;5071616;28;20948;-70
2023/01/06 11:06:39;;;;;;;57.43;2.60;;;;;;;;;;5071467;28;20532;-70
2023/01/06 11:09:23;;;;;;;57.30;2.40;;;;;;;;;;5070961;28;20453;-70
2023/01/06 11:11:51;;;;;;;57.50;2.40;;;;;;;;;;5071518;28;20467;-70
2023/01/06 11:14:19;;;;;;;57.90;2.60;;;;;;;;;;5071560;28;20451;-70
2023/01/06 11:16:53;;;;;;;57.37;2.40;;;;;;;;;;5071449;28;20932;-70
2023/01/06 11:19:23;;;;;;;57.70;2.33;;;;;;;;;;5071195;28;20453;-70
2023/01/06 11:21:50;;;;;;;63.57;6.50;;;;;;;;;;5071364;28;20983;-70
2023/01/06 11:24:19;;;;;;;58.80;3.90;;;;;;;;;;5071604;28;20443;-70
2023/01/06 11:26:51;;;;;;;57.40;2.90;;;;;;;;;;5071228;28;20487;-70
2023/01/06 11:29:19;;;;;;;57.80;2.77;;;;;;;;;;5070745;28;20588;-70
2023/01/06 11:31:48;;;;;;;58.17;2.67;;;;;;;;;;5071226;28;20463;-70
2023/01/06 11:34:21;;;;;;;57.70;2.50;;;;;;;;;;5071332;28;20447;-70
2023/01/06 11:36:48;;;;;;;57.50;2.33;;;;;;;;;;5072208;28;20965;-70
2023/01/06 11:39:20;;;;;;;57.67;2.30;;;;;;;;;;5074297;28;20951;-70
2023/01/06 11:41:50;;;;;;;58.40;2.40;;;;;;;;;;5074976;28;20467;-70
2023/01/06 11:44:19;;;;;;;57.60;2.20;;;;;;;;;;5075510;28;20447;-70
2023/01/06 11:46:48;;;;;;;57.37;2.37;;;;;;;;;;5074939;28;20487;-70
2023/01/06 11:49:16;;;;;;;57.80;2.40;;;;;;;;;;5074253;28;20451;-70
2023/01/06 11:51:48;;;;;;;62.67;7.30;;;;;;;;;;5074716;28;20475;-70
2023/01/06 11:54:26;;;;;;;58.20;3.33;;;;;;;;;;5074779;28;20985;-70
2023/01/06 11:57:02;;;;;;;60.80;3.87;;;;;;;;;;5075010;28;20581;-70
2023/01/06 11:59:34;;;;;;;58.70;2.50;;;;;;;;;;5073984;28;20448;-70
2023/01/06 12:02:01;;;;;;;59.00;3.03;;;;;;;;;;5074821;28;20743;-70
2023/01/06 12:04:32;;;;;;;58.70;3.53;;;;;;;;;;5074713;28;20454;-70
2023/01/06 12:07:01;;;;;;;59.67;3.57;;;;;;;;;;5074516;28;20604;-70
2023/01/06 12:09:30;;;;;;;61.70;4.10;;;;;;;;;;5074027;28;20447;-70
2023/01/06 12:11:59;;;;;;;59.00;3.70;;;;;;;;;;5074404;28;20477;-70
2023/01/06 12:14:29;;;;;;;58.97;3.93;;;;;;;;;;5074588;28;20447;-70
2023/01/06 12:17:01;;;;;;;58.57;2.83;;;;;;;;;;5074400;28;20948;-70
2023/01/06 12:19:33;;;;;;;58.20;2.70;;;;;;;;;;5073539;28;20463;-70
2023/01/06 12:22:01;;;;;;;57.57;2.60;;;;;;;;;;5074473;28;20477;-70
2023/01/06 12:24:31;;;;;;;57.60;2.70;;;;;;;;;;5074159;28;20979;-70
2023/01/06 12:26:58;;;;;;;57.77;2.60;;;;;;;;;;5074164;28;20475;-70
2023/01/06 12:29:26;;;;;;;57.17;2.30;;;;;;;;;;5073427;28;20453;-70
2023/01/06 12:32:00;;;;;;;57.50;2.63;;;;;;;;;;5074009;28;20471;-70
2023/01/06 12:34:30;;;;;;;57.90;2.83;;;;;;;;;;5074085;28;20451;-70
2023/01/06 12:37:00;;;;;;;57.90;2.27;;;;;;;;;;5074173;28;20964;-70
2023/01/06 12:39:31;;;;;;;57.80;2.77;;;;;;;;;;5073348;28;20447;-70
2023/01/06 12:42:00;;;;;;;58.47;2.50;;;;;;;;;;5074031;28;20467;-70
2023/01/06 12:44:33;;;;;;;57.33;2.50;;;;;;;;;;5073819;28;20451;-70
2023/01/06 12:47:05;;;;;;;57.90;2.80;;;;;;;;;;5074005;28;20489;-70
2023/01/06 12:49:35;;;;;;;57.80;2.80;;;;;;;;;;5072447;28;20454;-70
2023/01/06 12:52:04;;;;;;;57.83;2.93;;;;;;;;;;5073555;28;20887;-70
2023/01/06 12:54:32;;;;;;;58.37;2.77;;;;;;;;;;5073799;28;20451;-70
2023/01/06 12:57:04;;;;;;;57.57;2.77;;;;;;;;;;5073590;28;20440;-70
2023/01/06 12:59:37;;;;;;;57.87;2.80;;;;;;;;;;5073243;28;20466;-70
2023/01/06 13:02:12;;;;;;;58.17;3.00;;;;;;;;;;5073640;28;20463;-70
2023/01/06 13:04:51;;;;;;;59.30;3.10;;;;;;;;;;5073601;28;20443;-70
2023/01/06 13:07:26;;;;;;;58.10;2.70;;;;;;;;;;5073317;28;20479;-70
2023/01/06 13:09:57;;;;;;;58.20;2.87;;;;;;;;;;5072696;28;20442;-70
2023/01/06 13:12:46;;;;;;;58.60;2.63;;;;;;;;;;5073481;28;20471;-70
2023/01/06 13:15:16;;;;;;;57.80;2.80;;;;;;;;;;5068594;28;20462;-70
2023/01/06 13:17:47;;;;;;;58.50;3.00;;;;;;;;;;5073235;28;20467;-70
2023/01/06 13:20:18;;;;;;;58.00;2.57;;;;;;;;;;5072674;28;20451;-70
2023/01/06 13:22:51;;;;;;;58.47;3.07;;;;;;;;;;5073094;28;20459;-70
2023/01/06 13:25:37;;;;;;;59.50;3.57;;;;;;;;;;5073178;28;20455;-70
2023/01/06 13:28:09;;;;;;;58.00;2.80;;;;;;;;;;5072914;28;20533;-70
2023/01/06 13:31:01;;;;;;;58.50;3.30;;;;;;;;;;5072611;28;20443;-70
2023/01/06 13:33:41;;;;;;;58.67;3.40;;;;;;;;;;5073154;28;20510;-70
2023/01/06 13:36:20;;;;;;;58.13;3.30;;;;;;;;;;5072867;28;20454;-70
2023/01/06 13:38:58;;;;;;;58.97;3.20;;;;;;;;;;5072045;28;20947;-70
2023/01/06 13:41:27;;;;;;;58.97;3.00;;;;;;;;;;5072738;28;20467;-70
2023/01/06 13:43:55;;;;;;;58.47;3.33;;;;;;;;;;5073186;28;20538;-70
2023/01/06 13:46:23;;;;;;;58.13;3.10;;;;;;;;;;5072770;28;20447;-70
2023/01/06 13:48:54;;;;;;;58.73;3.50;;;;;;;;;;5071785;28;20491;-70
2023/01/06 13:51:23;;;;;;;58.37;3.00;;;;;;;;;;5072503;28;20463;-70
2023/01/06 13:53:53;;;;;;;58.20;2.93;;;;;;;;;;5072834;28;20444;-71
2023/01/06 13:56:24;;;;;;;58.57;3.07;;;;;;;;;;5072423;28;20451;-70
2023/01/06 13:58:51;;;;;;;58.27;2.67;;;;;;;;;;5071761;28;20869;-70
2023/01/06 14:01:32;;;;;;;57.67;2.93;;;;;;;;;;5072216;28;20467;-70
2023/01/06 14:04:30;;;;;;;57.97;3.07;;;;;;;;;;5072307;28;20517;-70
2023/01/06 14:06:57;;;;;;;58.40;3.10;;;;;;;;;;5072159;28;20454;-70
2023/01/06 14:09:24;;;;;;;58.23;3.13;;;;;;;;;;5071532;28;20466;-70
2023/01/06 14:11:51;;;;;;;58.80;3.40;;;;;;;;;;5071969;28;20475;-70
2023/01/06 14:14:23;;;;;;;59.70;4.13;;;;;;;;;;5072112;28;20439;-70
2023/01/06 14:16:52;;;;;;;58.93;3.67;;;;;;;;;;5072298;28;20928;-70
2023/01/06 14:19:21;;;;;;;59.57;3.73;;;;;;;;;;5071230;28;21005;-70
2023/01/06 14:21:49;;;;;;;59.20;3.60;;;;;;;;;;5071893;28;20975;-70
2023/01/06 14:24:22;;;;;;;58.00;3.30;;;;;;;;;;5071964;28;20453;-70
2023/01/06 14:26:51;;;;;;;57.40;2.60;;;;;;;;;;5071857;28;20458;-70
2023/01/06 14:29:36;;;;;;;57.90;2.83;;;;;;;;;;5071404;28;20801;-70
2023/01/06 14:32:05;;;;;;;57.90;3.10;;;;;;;;;;5071988;28;20880;-70
2023/01/06 14:34:34;;;;;;;57.80;2.87;;;;;;;;;;5071785;28;20444;-70
2023/01/06 14:37:03;;;;;;;59.13;2.87;;;;;;;;;;5071796;28;20813;-70
2023/01/06 14:39:31;;;;;;;57.97;3.00;;;;;;;;;;5071343;28;20448;-70
2023/01/06 14:42:01;;;;;;;58.60;3.40;;;;;;;;;;5071707;28;20478;-70
2023/01/06 14:44:31;;;;;;;58.10;2.77;;;;;;;;;;5071745;28;20952;-70
2023/01/06 14:47:02;;;;;;;57.97;3.13;;;;;;;;;;5071692;28;20451;-70